sensor_id;sensor_type;location;lat;lon;timestamp;P1;durP1;ratioP1;P2;durP2;ratioP2
12760;SDS011;6444;49.742;6.114;2022-07-29T00:00:58;5.03;;;4.03;;
12760;SDS011;6444;49.742;6.114;2022-07-29T00:03:25;5.85;;;3.97;;
12760;SDS011;6444;49.742;6.114;2022-07-29T00:05:52;5.50;;;3.65;;
12760;SDS011;6444;49.742;6.114;2022-07-29T00:08:19;6.60;;;4.60;;
12760;SDS011;6444;49.742;6.114;2022-07-29T00:10:46;6.35;;;3.87;;
12760;SDS011;6444;49.742;6.114;2022-07-29T00:13:12;4.82;;;4.12;;
12760;SDS011;6444;49.742;6.114;2022-07-29T00:15:39;5.37;;;4.03;;
12760;SDS011;6444;49.742;6.114;2022-07-29T00:18:06;3.65;;;3.35;;
12760;SDS011;6444;49.742;6.114;2022-07-29T00:20:33;6.03;;;3.62;;
12760;SDS011;6444;49.742;6.114;2022-07-29T00:22:59;4.62;;;3.97;;
12760;SDS011;6444;49.742;6.114;2022-07-29T00:25:26;6.65;;;3.92;;
12760;SDS011;6444;49.742;6.114;2022-07-29T00:27:53;5.12;;;3.08;;
12760;SDS011;6444;49.742;6.114;2022-07-29T00:30:20;5.53;;;3.50;;
12760;SDS011;6444;49.742;6.114;2022-07-29T00:32:46;3.30;;;2.92;;
12760;SDS011;6444;49.742;6.114;2022-07-29T00:35:13;5.05;;;3.22;;
12760;SDS011;6444;49.742;6.114;2022-07-29T00:37:58;4.12;;;3.20;;
12760;SDS011;6444;49.742;6.114;2022-07-29T00:40:24;3.78;;;3.12;;
12760;SDS011;6444;49.742;6.114;2022-07-29T00:42:51;3.90;;;3.20;;
12760;SDS011;6444;49.742;6.114;2022-07-29T00:45:18;5.00;;;3.70;;
12760;SDS011;6444;49.742;6.114;2022-07-29T00:47:44;5.80;;;4.28;;
12760;SDS011;6444;49.742;6.114;2022-07-29T00:50:12;5.05;;;3.28;;
12760;SDS011;6444;49.742;6.114;2022-07-29T00:52:39;3.92;;;3.03;;
12760;SDS011;6444;49.742;6.114;2022-07-29T00:55:05;4.85;;;2.70;;
12760;SDS011;6444;49.742;6.114;2022-07-29T00:57:32;3.70;;;2.90;;
12760;SDS011;6444;49.742;6.114;2022-07-29T00:59:59;3.10;;;2.80;;
12760;SDS011;6444;49.742;6.114;2022-07-29T01:02:25;5.55;;;3.08;;
12760;SDS011;6444;49.742;6.114;2022-07-29T01:04:52;3.35;;;3.05;;
12760;SDS011;6444;49.742;6.114;2022-07-29T01:07:19;5.12;;;3.42;;
12760;SDS011;6444;49.742;6.114;2022-07-29T01:09:46;6.82;;;3.55;;
12760;SDS011;6444;49.742;6.114;2022-07-29T01:12:13;5.65;;;3.00;;
12760;SDS011;6444;49.742;6.114;2022-07-29T01:14:39;5.32;;;3.28;;
12760;SDS011;6444;49.742;6.114;2022-07-29T01:17:10;8.75;;;3.25;;
12760;SDS011;6444;49.742;6.114;2022-07-29T01:25:10;5.75;;;4.15;;
12760;SDS011;6444;49.742;6.114;2022-07-29T01:30:26;5.12;;;3.55;;
12760;SDS011;6444;49.742;6.114;2022-07-29T01:32:54;6.57;;;3.20;;
12760;SDS011;6444;49.742;6.114;2022-07-29T01:35:26;4.30;;;3.10;;
12760;SDS011;6444;49.742;6.114;2022-07-29T01:37:52;5.43;;;3.62;;
12760;SDS011;6444;49.742;6.114;2022-07-29T01:40:22;3.40;;;3.10;;
12760;SDS011;6444;49.742;6.114;2022-07-29T01:42:57;3.58;;;3.28;;
12760;SDS011;6444;49.742;6.114;2022-07-29T01:50:57;7.55;;;3.35;;
12760;SDS011;6444;49.742;6.114;2022-07-29T01:53:37;4.40;;;3.20;;
12760;SDS011;6444;49.742;6.114;2022-07-29T01:56:02;5.47;;;3.40;;
12760;SDS011;6444;49.742;6.114;2022-07-29T01:58:29;5.50;;;3.03;;
12760;SDS011;6444;49.742;6.114;2022-07-29T02:00:57;3.80;;;3.47;;
12760;SDS011;6444;49.742;6.114;2022-07-29T02:03:23;5.65;;;3.53;;
12760;SDS011;6444;49.742;6.114;2022-07-29T02:05:49;6.70;;;3.80;;
12760;SDS011;6444;49.742;6.114;2022-07-29T02:08:16;5.07;;;3.60;;
12760;SDS011;6444;49.742;6.114;2022-07-29T02:10:43;4.35;;;3.45;;
12760;SDS011;6444;49.742;6.114;2022-07-29T02:13:10;4.85;;;3.45;;
12760;SDS011;6444;49.742;6.114;2022-07-29T02:15:37;5.40;;;4.07;;
12760;SDS011;6444;49.742;6.114;2022-07-29T02:18:11;3.75;;;3.45;;
12760;SDS011;6444;49.742;6.114;2022-07-29T02:20:35;4.20;;;3.70;;
12760;SDS011;6444;49.742;6.114;2022-07-29T02:23:02;3.78;;;3.30;;
12760;SDS011;6444;49.742;6.114;2022-07-29T02:25:29;4.28;;;3.55;;
12760;SDS011;6444;49.742;6.114;2022-07-29T02:27:55;6.03;;;3.60;;
12760;SDS011;6444;49.742;6.114;2022-07-29T02:30:22;4.12;;;3.50;;
12760;SDS011;6444;49.742;6.114;2022-07-29T02:32:49;4.65;;;3.78;;
12760;SDS011;6444;49.742;6.114;2022-07-29T02:35:15;4.47;;;3.40;;
12760;SDS011;6444;49.742;6.114;2022-07-29T02:37:43;4.30;;;3.70;;
12760;SDS011;6444;49.742;6.114;2022-07-29T02:40:09;4.12;;;3.83;;
12760;SDS011;6444;49.742;6.114;2022-07-29T02:42:36;5.37;;;4.25;;
12760;SDS011;6444;49.742;6.114;2022-07-29T02:45:02;5.45;;;4.15;;
12760;SDS011;6444;49.742;6.114;2022-07-29T02:47:45;5.15;;;3.95;;
12760;SDS011;6444;49.742;6.114;2022-07-29T02:50:21;7.68;;;3.58;;
12760;SDS011;6444;49.742;6.114;2022-07-29T02:52:49;4.75;;;3.83;;
12760;SDS011;6444;49.742;6.114;2022-07-29T02:57:41;7.47;;;4.28;;
12760;SDS011;6444;49.742;6.114;2022-07-29T03:00:07;5.82;;;3.97;;
12760;SDS011;6444;49.742;6.114;2022-07-29T03:02:35;4.82;;;4.43;;
12760;SDS011;6444;49.742;6.114;2022-07-29T03:05:00;4.70;;;4.30;;
12760;SDS011;6444;49.742;6.114;2022-07-29T03:07:27;7.00;;;5.30;;
12760;SDS011;6444;49.742;6.114;2022-07-29T03:09:53;7.30;;;4.97;;
12760;SDS011;6444;49.742;6.114;2022-07-29T03:12:20;5.45;;;4.12;;
12760;SDS011;6444;49.742;6.114;2022-07-29T03:14:47;4.87;;;4.10;;
12760;SDS011;6444;49.742;6.114;2022-07-29T03:17:13;6.15;;;4.45;;
12760;SDS011;6444;49.742;6.114;2022-07-29T03:19:40;4.37;;;3.97;;
12760;SDS011;6444;49.742;6.114;2022-07-29T03:22:07;6.30;;;3.70;;
12760;SDS011;6444;49.742;6.114;2022-07-29T03:24:35;4.57;;;4.00;;
12760;SDS011;6444;49.742;6.114;2022-07-29T03:27:01;4.68;;;3.92;;
12760;SDS011;6444;49.742;6.114;2022-07-29T03:29:27;4.97;;;4.47;;
12760;SDS011;6444;49.742;6.114;2022-07-29T03:31:54;5.85;;;4.22;;
12760;SDS011;6444;49.742;6.114;2022-07-29T03:34:21;6.18;;;4.37;;
12760;SDS011;6444;49.742;6.114;2022-07-29T03:36:48;5.05;;;4.57;;
12760;SDS011;6444;49.742;6.114;2022-07-29T03:39:15;5.15;;;4.70;;
12760;SDS011;6444;49.742;6.114;2022-07-29T03:41:41;5.18;;;4.05;;
12760;SDS011;6444;49.742;6.114;2022-07-29T03:44:08;4.70;;;4.30;;
12760;SDS011;6444;49.742;6.114;2022-07-29T03:46:35;6.18;;;4.57;;
12760;SDS011;6444;49.742;6.114;2022-07-29T03:49:03;5.03;;;4.10;;
12760;SDS011;6444;49.742;6.114;2022-07-29T03:51:28;9.20;;;4.68;;
12760;SDS011;6444;49.742;6.114;2022-07-29T03:53:55;5.97;;;4.55;;
12760;SDS011;6444;49.742;6.114;2022-07-29T03:56:22;7.53;;;4.35;;
12760;SDS011;6444;49.742;6.114;2022-07-29T03:58:52;8.10;;;4.85;;
12760;SDS011;6444;49.742;6.114;2022-07-29T04:01:19;6.05;;;4.47;;
12760;SDS011;6444;49.742;6.114;2022-07-29T04:03:46;5.85;;;4.20;;
12760;SDS011;6444;49.742;6.114;2022-07-29T04:06:12;4.68;;;4.28;;
12760;SDS011;6444;49.742;6.114;2022-07-29T04:08:39;6.53;;;4.93;;
12760;SDS011;6444;49.742;6.114;2022-07-29T04:11:06;4.75;;;4.35;;
12760;SDS011;6444;49.742;6.114;2022-07-29T04:13:32;4.57;;;4.12;;
12760;SDS011;6444;49.742;6.114;2022-07-29T04:15:59;5.05;;;4.45;;
12760;SDS011;6444;49.742;6.114;2022-07-29T04:18:25;6.25;;;4.45;;
12760;SDS011;6444;49.742;6.114;2022-07-29T04:20:52;5.35;;;4.75;;
12760;SDS011;6444;49.742;6.114;2022-07-29T04:23:19;5.03;;;4.55;;
12760;SDS011;6444;49.742;6.114;2022-07-29T04:25:45;4.87;;;4.45;;
12760;SDS011;6444;49.742;6.114;2022-07-29T04:28:12;7.05;;;4.50;;
12760;SDS011;6444;49.742;6.114;2022-07-29T04:30:39;6.00;;;4.40;;
12760;SDS011;6444;49.742;6.114;2022-07-29T04:33:06;5.05;;;4.60;;
12760;SDS011;6444;49.742;6.114;2022-07-29T04:35:36;7.62;;;4.57;;
12760;SDS011;6444;49.742;6.114;2022-07-29T04:38:02;4.43;;;4.03;;
12760;SDS011;6444;49.742;6.114;2022-07-29T04:40:28;5.72;;;4.62;;
12760;SDS011;6444;49.742;6.114;2022-07-29T04:45:29;6.17;;;4.80;;
12760;SDS011;6444;49.742;6.114;2022-07-29T04:47:57;4.65;;;4.22;;
12760;SDS011;6444;49.742;6.114;2022-07-29T04:50:23;6.55;;;4.35;;
12760;SDS011;6444;49.742;6.114;2022-07-29T04:52:50;4.68;;;4.25;;
12760;SDS011;6444;49.742;6.114;2022-07-29T04:55:17;6.82;;;4.10;;
12760;SDS011;6444;49.742;6.114;2022-07-29T04:57:43;4.82;;;4.10;;
12760;SDS011;6444;49.742;6.114;2022-07-29T05:00:11;4.47;;;3.65;;
12760;SDS011;6444;49.742;6.114;2022-07-29T05:02:37;7.20;;;3.97;;
12760;SDS011;6444;49.742;6.114;2022-07-29T05:05:04;5.30;;;3.97;;
12760;SDS011;6444;49.742;6.114;2022-07-29T05:07:31;4.15;;;3.67;;
12760;SDS011;6444;49.742;6.114;2022-07-29T05:09:57;7.10;;;3.10;;
12760;SDS011;6444;49.742;6.114;2022-07-29T05:12:25;3.17;;;2.90;;
12760;SDS011;6444;49.742;6.114;2022-07-29T05:14:51;3.55;;;2.67;;
12760;SDS011;6444;49.742;6.114;2022-07-29T05:17:18;3.67;;;2.47;;
12760;SDS011;6444;49.742;6.114;2022-07-29T05:19:44;2.60;;;2.15;;
12760;SDS011;6444;49.742;6.114;2022-07-29T05:22:11;3.45;;;2.40;;
12760;SDS011;6444;49.742;6.114;2022-07-29T05:24:38;2.35;;;2.15;;
12760;SDS011;6444;49.742;6.114;2022-07-29T05:27:04;3.83;;;2.50;;
12760;SDS011;6444;49.742;6.114;2022-07-29T05:29:31;3.78;;;2.50;;
12760;SDS011;6444;49.742;6.114;2022-07-29T05:31:58;4.07;;;2.40;;
12760;SDS011;6444;49.742;6.114;2022-07-29T05:34:24;3.95;;;2.50;;
12760;SDS011;6444;49.742;6.114;2022-07-29T05:36:51;3.17;;;2.55;;
12760;SDS011;6444;49.742;6.114;2022-07-29T05:39:17;4.43;;;2.28;;
12760;SDS011;6444;49.742;6.114;2022-07-29T05:41:44;3.08;;;2.10;;
12760;SDS011;6444;49.742;6.114;2022-07-29T05:44:11;3.92;;;2.40;;
12760;SDS011;6444;49.742;6.114;2022-07-29T05:46:37;3.10;;;2.30;;
12760;SDS011;6444;49.742;6.114;2022-07-29T05:49:05;2.55;;;1.80;;
12760;SDS011;6444;49.742;6.114;2022-07-29T05:51:32;3.50;;;2.10;;
12760;SDS011;6444;49.742;6.114;2022-07-29T05:53:58;2.70;;;1.90;;
12760;SDS011;6444;49.742;6.114;2022-07-29T05:56:25;4.18;;;2.20;;
12760;SDS011;6444;49.742;6.114;2022-07-29T05:58:51;4.32;;;1.90;;
12760;SDS011;6444;49.742;6.114;2022-07-29T06:01:19;3.92;;;2.62;;
12760;SDS011;6444;49.742;6.114;2022-07-29T06:03:45;7.72;;;4.43;;
12760;SDS011;6444;49.742;6.114;2022-07-29T06:06:12;10.45;;;7.40;;
12760;SDS011;6444;49.742;6.114;2022-07-29T06:08:38;11.52;;;10.00;;
12760;SDS011;6444;49.742;6.114;2022-07-29T06:11:05;7.32;;;5.22;;
12760;SDS011;6444;49.742;6.114;2022-07-29T06:13:35;6.15;;;3.60;;
12760;SDS011;6444;49.742;6.114;2022-07-29T06:16:01;4.78;;;3.42;;
12760;SDS011;6444;49.742;6.114;2022-07-29T06:18:28;3.65;;;2.40;;
12760;SDS011;6444;49.742;6.114;2022-07-29T06:20:54;5.12;;;2.62;;
12760;SDS011;6444;49.742;6.114;2022-07-29T06:23:21;4.95;;;2.80;;
12760;SDS011;6444;49.742;6.114;2022-07-29T06:25:48;4.00;;;2.40;;
12760;SDS011;6444;49.742;6.114;2022-07-29T06:28:14;3.40;;;2.53;;
12760;SDS011;6444;49.742;6.114;2022-07-29T06:30:41;3.37;;;2.10;;
12760;SDS011;6444;49.742;6.114;2022-07-29T06:33:08;4.20;;;2.47;;
12760;SDS011;6444;49.742;6.114;2022-07-29T06:35:35;4.30;;;2.28;;
12760;SDS011;6444;49.742;6.114;2022-07-29T06:38:02;3.90;;;2.25;;
12760;SDS011;6444;49.742;6.114;2022-07-29T06:40:30;4.32;;;2.40;;
12760;SDS011;6444;49.742;6.114;2022-07-29T06:43:15;4.15;;;2.20;;
12760;SDS011;6444;49.742;6.114;2022-07-29T06:45:41;4.50;;;2.00;;
12760;SDS011;6444;49.742;6.114;2022-07-29T06:48:08;4.15;;;2.00;;
12760;SDS011;6444;49.742;6.114;2022-07-29T06:50:35;3.20;;;1.90;;
12760;SDS011;6444;49.742;6.114;2022-07-29T06:53:01;3.37;;;1.80;;
12760;SDS011;6444;49.742;6.114;2022-07-29T06:55:28;2.30;;;1.90;;
12760;SDS011;6444;49.742;6.114;2022-07-29T06:57:54;2.37;;;1.73;;
12760;SDS011;6444;49.742;6.114;2022-07-29T07:00:21;3.70;;;1.98;;
12760;SDS011;6444;49.742;6.114;2022-07-29T07:02:48;4.30;;;2.00;;
12760;SDS011;6444;49.742;6.114;2022-07-29T07:05:14;4.70;;;2.12;;
12760;SDS011;6444;49.742;6.114;2022-07-29T07:07:41;2.97;;;1.90;;
12760;SDS011;6444;49.742;6.114;2022-07-29T07:10:08;4.12;;;1.70;;
12760;SDS011;6444;49.742;6.114;2022-07-29T07:12:34;3.35;;;1.80;;
12760;SDS011;6444;49.742;6.114;2022-07-29T07:15:01;3.25;;;1.80;;
12760;SDS011;6444;49.742;6.114;2022-07-29T07:17:28;3.35;;;1.80;;
12760;SDS011;6444;49.742;6.114;2022-07-29T07:19:54;3.53;;;1.70;;
12760;SDS011;6444;49.742;6.114;2022-07-29T07:22:21;6.22;;;2.00;;
12760;SDS011;6444;49.742;6.114;2022-07-29T07:24:47;4.12;;;1.75;;
12760;SDS011;6444;49.742;6.114;2022-07-29T07:27:14;3.42;;;1.70;;
12760;SDS011;6444;49.742;6.114;2022-07-29T07:29:41;2.80;;;2.00;;
12760;SDS011;6444;49.742;6.114;2022-07-29T07:32:07;2.60;;;1.95;;
12760;SDS011;6444;49.742;6.114;2022-07-29T07:34:34;5.20;;;2.30;;
12760;SDS011;6444;49.742;6.114;2022-07-29T07:37:01;3.05;;;1.73;;
12760;SDS011;6444;49.742;6.114;2022-07-29T07:39:27;3.62;;;2.12;;
12760;SDS011;6444;49.742;6.114;2022-07-29T07:41:54;4.90;;;1.80;;
12760;SDS011;6444;49.742;6.114;2022-07-29T07:44:20;4.25;;;2.00;;
12760;SDS011;6444;49.742;6.114;2022-07-29T07:46:47;3.17;;;1.83;;
12760;SDS011;6444;49.742;6.114;2022-07-29T07:49:14;4.70;;;2.22;;
12760;SDS011;6444;49.742;6.114;2022-07-29T07:51:40;3.10;;;2.10;;
12760;SDS011;6444;49.742;6.114;2022-07-29T07:54:07;5.12;;;2.05;;
12760;SDS011;6444;49.742;6.114;2022-07-29T07:56:34;4.15;;;1.80;;
12760;SDS011;6444;49.742;6.114;2022-07-29T07:59:00;4.15;;;2.20;;
12760;SDS011;6444;49.742;6.114;2022-07-29T08:01:27;6.55;;;2.35;;
12760;SDS011;6444;49.742;6.114;2022-07-29T08:03:54;2.67;;;1.58;;
12760;SDS011;6444;49.742;6.114;2022-07-29T08:06:21;6.05;;;1.83;;
12760;SDS011;6444;49.742;6.114;2022-07-29T08:08:47;2.83;;;2.00;;
12760;SDS011;6444;49.742;6.114;2022-07-29T08:11:14;4.50;;;1.83;;
12760;SDS011;6444;49.742;6.114;2022-07-29T08:13:42;3.08;;;1.80;;
12760;SDS011;6444;49.742;6.114;2022-07-29T08:16:08;6.12;;;1.90;;
12760;SDS011;6444;49.742;6.114;2022-07-29T08:18:38;12.23;;;2.37;;
12760;SDS011;6444;49.742;6.114;2022-07-29T08:21:04;2.67;;;1.87;;
12760;SDS011;6444;49.742;6.114;2022-07-29T08:23:31;5.78;;;2.55;;
12760;SDS011;6444;49.742;6.114;2022-07-29T08:25:57;7.70;;;2.30;;
12760;SDS011;6444;49.742;6.114;2022-07-29T08:28:24;8.63;;;2.37;;
12760;SDS011;6444;49.742;6.114;2022-07-29T08:30:51;4.57;;;2.22;;
12760;SDS011;6444;49.742;6.114;2022-07-29T08:33:17;5.60;;;1.90;;
12760;SDS011;6444;49.742;6.114;2022-07-29T08:35:44;6.68;;;2.12;;
12760;SDS011;6444;49.742;6.114;2022-07-29T08:38:11;3.12;;;2.00;;
12760;SDS011;6444;49.742;6.114;2022-07-29T08:40:37;7.87;;;2.33;;
12760;SDS011;6444;49.742;6.114;2022-07-29T08:43:06;5.15;;;2.10;;
12760;SDS011;6444;49.742;6.114;2022-07-29T08:45:43;7.43;;;2.33;;
12760;SDS011;6444;49.742;6.114;2022-07-29T08:48:12;5.62;;;1.65;;
12760;SDS011;6444;49.742;6.114;2022-07-29T08:50:38;3.55;;;1.90;;
12760;SDS011;6444;49.742;6.114;2022-07-29T08:53:04;3.35;;;1.80;;
12760;SDS011;6444;49.742;6.114;2022-07-29T08:55:31;4.12;;;2.10;;
12760;SDS011;6444;49.742;6.114;2022-07-29T08:57:58;4.50;;;2.28;;
12760;SDS011;6444;49.742;6.114;2022-07-29T09:00:24;4.28;;;2.10;;
12760;SDS011;6444;49.742;6.114;2022-07-29T09:02:54;6.45;;;2.42;;
12760;SDS011;6444;49.742;6.114;2022-07-29T09:05:18;3.85;;;2.47;;
12760;SDS011;6444;49.742;6.114;2022-07-29T09:07:45;4.53;;;2.42;;
12760;SDS011;6444;49.742;6.114;2022-07-29T09:10:11;6.32;;;2.40;;
12760;SDS011;6444;49.742;6.114;2022-07-29T09:12:38;4.82;;;2.03;;
12760;SDS011;6444;49.742;6.114;2022-07-29T09:15:05;4.53;;;2.05;;
12760;SDS011;6444;49.742;6.114;2022-07-29T09:17:47;5.28;;;2.25;;
12760;SDS011;6444;49.742;6.114;2022-07-29T09:20:17;5.25;;;2.28;;
12760;SDS011;6444;49.742;6.114;2022-07-29T09:22:43;6.72;;;2.45;;
12760;SDS011;6444;49.742;6.114;2022-07-29T09:25:11;6.35;;;2.50;;
12760;SDS011;6444;49.742;6.114;2022-07-29T09:27:37;5.40;;;2.33;;
12760;SDS011;6444;49.742;6.114;2022-07-29T09:30:07;3.12;;;1.85;;
12760;SDS011;6444;49.742;6.114;2022-07-29T09:32:30;5.68;;;2.10;;
12760;SDS011;6444;49.742;6.114;2022-07-29T09:37:45;3.72;;;1.85;;
12760;SDS011;6444;49.742;6.114;2022-07-29T09:40:15;5.18;;;2.50;;
12760;SDS011;6444;49.742;6.114;2022-07-29T09:42:41;4.47;;;2.20;;
12760;SDS011;6444;49.742;6.114;2022-07-29T09:45:08;6.07;;;2.22;;
12760;SDS011;6444;49.742;6.114;2022-07-29T09:47:45;4.60;;;2.22;;
12760;SDS011;6444;49.742;6.114;2022-07-29T09:50:13;6.50;;;2.58;;
12760;SDS011;6444;49.742;6.114;2022-07-29T09:52:47;3.90;;;2.10;;
12760;SDS011;6444;49.742;6.114;2022-07-29T09:55:12;5.90;;;2.22;;
12760;SDS011;6444;49.742;6.114;2022-07-29T09:57:39;3.37;;;2.15;;
12760;SDS011;6444;49.742;6.114;2022-07-29T10:00:07;3.53;;;2.03;;
12760;SDS011;6444;49.742;6.114;2022-07-29T10:02:32;4.12;;;2.03;;
12760;SDS011;6444;49.742;6.114;2022-07-29T10:05:00;4.28;;;2.25;;
12760;SDS011;6444;49.742;6.114;2022-07-29T10:07:26;3.62;;;2.03;;
12760;SDS011;6444;49.742;6.114;2022-07-29T10:09:56;3.60;;;2.28;;
12760;SDS011;6444;49.742;6.114;2022-07-29T10:12:21;5.97;;;2.00;;
12760;SDS011;6444;49.742;6.114;2022-07-29T10:14:49;3.22;;;1.98;;
12760;SDS011;6444;49.742;6.114;2022-07-29T10:17:16;2.67;;;2.08;;
12760;SDS011;6444;49.742;6.114;2022-07-29T10:19:42;5.18;;;1.90;;
12760;SDS011;6444;49.742;6.114;2022-07-29T10:22:09;3.87;;;2.25;;
12760;SDS011;6444;49.742;6.114;2022-07-29T10:24:36;3.95;;;1.92;;
12760;SDS011;6444;49.742;6.114;2022-07-29T10:27:02;5.53;;;2.15;;
12760;SDS011;6444;49.742;6.114;2022-07-29T10:29:29;2.12;;;1.87;;
12760;SDS011;6444;49.742;6.114;2022-07-29T10:32:10;2.72;;;2.03;;
12760;SDS011;6444;49.742;6.114;2022-07-29T10:37:52;4.37;;;2.00;;
12760;SDS011;6444;49.742;6.114;2022-07-29T10:43:17;3.65;;;1.90;;
12760;SDS011;6444;49.742;6.114;2022-07-29T10:45:49;3.62;;;1.80;;
12760;SDS011;6444;49.742;6.114;2022-07-29T10:48:15;2.22;;;1.52;;
12760;SDS011;6444;49.742;6.114;2022-07-29T10:53:46;4.70;;;2.00;;
12760;SDS011;6444;49.742;6.114;2022-07-29T10:56:29;3.97;;;1.67;;
12760;SDS011;6444;49.742;6.114;2022-07-29T11:01:47;3.37;;;1.75;;
12760;SDS011;6444;49.742;6.114;2022-07-29T11:04:14;7.18;;;1.90;;
12760;SDS011;6444;49.742;6.114;2022-07-29T11:07:14;3.17;;;1.98;;
12760;SDS011;6444;49.742;6.114;2022-07-29T11:09:32;4.37;;;2.08;;
12760;SDS011;6444;49.742;6.114;2022-07-29T11:11:59;3.42;;;1.95;;
12760;SDS011;6444;49.742;6.114;2022-07-29T11:17:22;4.78;;;2.37;;
12760;SDS011;6444;49.742;6.114;2022-07-29T11:19:49;4.37;;;1.85;;
12760;SDS011;6444;49.742;6.114;2022-07-29T11:25:17;4.15;;;1.90;;
12760;SDS011;6444;49.742;6.114;2022-07-29T11:27:46;4.03;;;1.80;;
12760;SDS011;6444;49.742;6.114;2022-07-29T11:30:13;2.62;;;1.90;;
12760;SDS011;6444;49.742;6.114;2022-07-29T11:32:42;2.55;;;1.85;;
12760;SDS011;6444;49.742;6.114;2022-07-29T11:35:13;4.12;;;1.90;;
12760;SDS011;6444;49.742;6.114;2022-07-29T11:37:38;3.03;;;2.00;;
12760;SDS011;6444;49.742;6.114;2022-07-29T11:45:14;2.58;;;1.85;;
12760;SDS011;6444;49.742;6.114;2022-07-29T11:50:14;4.18;;;2.30;;
12760;SDS011;6444;49.742;6.114;2022-07-29T11:52:40;2.92;;;1.95;;
12760;SDS011;6444;49.742;6.114;2022-07-29T11:55:11;3.92;;;2.12;;
12760;SDS011;6444;49.742;6.114;2022-07-29T11:57:38;5.55;;;2.30;;
12760;SDS011;6444;49.742;6.114;2022-07-29T12:00:05;3.15;;;2.00;;
12760;SDS011;6444;49.742;6.114;2022-07-29T12:02:38;3.20;;;2.08;;
12760;SDS011;6444;49.742;6.114;2022-07-29T12:05:05;3.62;;;1.90;;
12760;SDS011;6444;49.742;6.114;2022-07-29T12:07:32;3.17;;;1.98;;
12760;SDS011;6444;49.742;6.114;2022-07-29T12:09:58;2.35;;;1.80;;
12760;SDS011;6444;49.742;6.114;2022-07-29T12:12:25;4.47;;;1.90;;
12760;SDS011;6444;49.742;6.114;2022-07-29T12:14:51;2.85;;;1.80;;
12760;SDS011;6444;49.742;6.114;2022-07-29T12:17:27;4.93;;;2.10;;
12760;SDS011;6444;49.742;6.114;2022-07-29T12:19:53;3.72;;;1.95;;
12760;SDS011;6444;49.742;6.114;2022-07-29T12:22:26;3.95;;;1.90;;
12760;SDS011;6444;49.742;6.114;2022-07-29T12:24:53;4.40;;;1.95;;
12760;SDS011;6444;49.742;6.114;2022-07-29T12:27:19;6.35;;;2.22;;
12760;SDS011;6444;49.742;6.114;2022-07-29T12:30:08;3.55;;;1.92;;
12760;SDS011;6444;49.742;6.114;2022-07-29T12:32:24;6.05;;;2.45;;
12760;SDS011;6444;49.742;6.114;2022-07-29T12:34:50;5.53;;;2.70;;
12760;SDS011;6444;49.742;6.114;2022-07-29T12:37:17;5.03;;;2.17;;
12760;SDS011;6444;49.742;6.114;2022-07-29T12:39:44;2.85;;;2.00;;
12760;SDS011;6444;49.742;6.114;2022-07-29T12:42:14;9.05;;;2.35;;
12760;SDS011;6444;49.742;6.114;2022-07-29T12:44:46;3.47;;;2.00;;
12760;SDS011;6444;49.742;6.114;2022-07-29T12:47:13;2.97;;;1.83;;
12760;SDS011;6444;49.742;6.114;2022-07-29T12:49:39;3.20;;;1.92;;
12760;SDS011;6444;49.742;6.114;2022-07-29T12:55:00;3.97;;;2.28;;
12760;SDS011;6444;49.742;6.114;2022-07-29T12:57:27;4.85;;;2.30;;
12760;SDS011;6444;49.742;6.114;2022-07-29T13:00:09;4.32;;;2.25;;
12760;SDS011;6444;49.742;6.114;2022-07-29T13:02:36;3.95;;;2.20;;
12760;SDS011;6444;49.742;6.114;2022-07-29T13:05:02;2.60;;;1.90;;
12760;SDS011;6444;49.742;6.114;2022-07-29T13:07:29;5.30;;;2.30;;
12760;SDS011;6444;49.742;6.114;2022-07-29T13:10:14;4.75;;;2.17;;
12760;SDS011;6444;49.742;6.114;2022-07-29T13:15:32;2.95;;;2.00;;
12760;SDS011;6444;49.742;6.114;2022-07-29T13:17:59;4.30;;;2.50;;
12760;SDS011;6444;49.742;6.114;2022-07-29T13:20:26;4.90;;;2.17;;
12760;SDS011;6444;49.742;6.114;2022-07-29T13:22:52;4.40;;;2.20;;
12760;SDS011;6444;49.742;6.114;2022-07-29T13:25:25;3.17;;;1.98;;
12760;SDS011;6444;49.742;6.114;2022-07-29T13:27:51;5.53;;;2.08;;
12760;SDS011;6444;49.742;6.114;2022-07-29T13:30:18;5.55;;;2.40;;
12760;SDS011;6444;49.742;6.114;2022-07-29T13:32:44;4.57;;;2.10;;
12760;SDS011;6444;49.742;6.114;2022-07-29T13:35:11;6.10;;;2.40;;
12760;SDS011;6444;49.742;6.114;2022-07-29T13:37:38;4.15;;;2.03;;
12760;SDS011;6444;49.742;6.114;2022-07-29T13:40:08;3.05;;;2.30;;
12760;SDS011;6444;49.742;6.114;2022-07-29T13:42:31;3.62;;;2.15;;
12760;SDS011;6444;49.742;6.114;2022-07-29T13:44:58;2.75;;;2.12;;
12760;SDS011;6444;49.742;6.114;2022-07-29T13:47:24;3.83;;;2.03;;
12760;SDS011;6444;49.742;6.114;2022-07-29T13:49:51;4.35;;;2.17;;
12760;SDS011;6444;49.742;6.114;2022-07-29T13:52:19;4.32;;;2.22;;
12760;SDS011;6444;49.742;6.114;2022-07-29T13:54:45;3.40;;;2.10;;
12760;SDS011;6444;49.742;6.114;2022-07-29T13:57:12;2.83;;;2.40;;
12760;SDS011;6444;49.742;6.114;2022-07-29T13:59:40;6.03;;;2.40;;
12760;SDS011;6444;49.742;6.114;2022-07-29T14:02:06;7.53;;;2.37;;
12760;SDS011;6444;49.742;6.114;2022-07-29T14:04:32;3.58;;;2.20;;
12760;SDS011;6444;49.742;6.114;2022-07-29T14:06:59;3.85;;;2.35;;
12760;SDS011;6444;49.742;6.114;2022-07-29T14:09:26;3.75;;;2.45;;
12760;SDS011;6444;49.742;6.114;2022-07-29T14:11:53;3.17;;;2.00;;
12760;SDS011;6444;49.742;6.114;2022-07-29T14:14:20;6.00;;;2.28;;
12760;SDS011;6444;49.742;6.114;2022-07-29T14:16:47;3.78;;;2.22;;
12760;SDS011;6444;49.742;6.114;2022-07-29T14:19:13;5.40;;;2.28;;
12760;SDS011;6444;49.742;6.114;2022-07-29T14:21:40;4.82;;;2.28;;
12760;SDS011;6444;49.742;6.114;2022-07-29T14:24:06;3.95;;;2.08;;
12760;SDS011;6444;49.742;6.114;2022-07-29T14:26:33;4.87;;;2.30;;
12760;SDS011;6444;49.742;6.114;2022-07-29T14:29:00;6.18;;;2.33;;
12760;SDS011;6444;49.742;6.114;2022-07-29T14:31:26;2.62;;;2.20;;
12760;SDS011;6444;49.742;6.114;2022-07-29T14:33:53;3.87;;;2.28;;
12760;SDS011;6444;49.742;6.114;2022-07-29T14:36:20;5.75;;;2.15;;
12760;SDS011;6444;49.742;6.114;2022-07-29T14:38:47;6.05;;;2.37;;
12760;SDS011;6444;49.742;6.114;2022-07-29T14:41:14;3.72;;;2.22;;
12760;SDS011;6444;49.742;6.114;2022-07-29T14:43:40;2.72;;;2.45;;
12760;SDS011;6444;49.742;6.114;2022-07-29T14:46:07;4.62;;;2.37;;
12760;SDS011;6444;49.742;6.114;2022-07-29T14:48:34;2.40;;;2.15;;
12760;SDS011;6444;49.742;6.114;2022-07-29T14:51:01;4.32;;;2.00;;
12760;SDS011;6444;49.742;6.114;2022-07-29T14:53:27;2.47;;;2.22;;
12760;SDS011;6444;49.742;6.114;2022-07-29T14:55:54;5.00;;;2.20;;
12760;SDS011;6444;49.742;6.114;2022-07-29T14:58:21;2.60;;;1.98;;
12760;SDS011;6444;49.742;6.114;2022-07-29T15:00:48;5.37;;;2.30;;
12760;SDS011;6444;49.742;6.114;2022-07-29T15:03:15;3.05;;;2.33;;
12760;SDS011;6444;49.742;6.114;2022-07-29T15:05:41;4.00;;;2.10;;
12760;SDS011;6444;49.742;6.114;2022-07-29T15:08:08;3.50;;;2.33;;
12760;SDS011;6444;49.742;6.114;2022-07-29T15:10:35;4.10;;;2.17;;
12760;SDS011;6444;49.742;6.114;2022-07-29T15:13:02;3.50;;;2.10;;
12760;SDS011;6444;49.742;6.114;2022-07-29T15:15:29;2.83;;;2.25;;
12760;SDS011;6444;49.742;6.114;2022-07-29T15:17:55;2.95;;;2.25;;
12760;SDS011;6444;49.742;6.114;2022-07-29T15:20:22;5.62;;;2.50;;
12760;SDS011;6444;49.742;6.114;2022-07-29T15:22:52;5.82;;;2.22;;
12760;SDS011;6444;49.742;6.114;2022-07-29T15:25:19;3.72;;;2.30;;
12760;SDS011;6444;49.742;6.114;2022-07-29T15:27:46;3.00;;;2.22;;
12760;SDS011;6444;49.742;6.114;2022-07-29T15:30:12;4.35;;;2.40;;
12760;SDS011;6444;49.742;6.114;2022-07-29T15:32:39;5.22;;;2.55;;
12760;SDS011;6444;49.742;6.114;2022-07-29T15:35:06;3.17;;;2.30;;
12760;SDS011;6444;49.742;6.114;2022-07-29T15:37:33;3.35;;;2.22;;
12760;SDS011;6444;49.742;6.114;2022-07-29T15:40:00;2.87;;;2.12;;
12760;SDS011;6444;49.742;6.114;2022-07-29T15:42:26;2.40;;;2.03;;
12760;SDS011;6444;49.742;6.114;2022-07-29T15:44:53;3.58;;;2.30;;
12760;SDS011;6444;49.742;6.114;2022-07-29T15:47:20;3.60;;;2.80;;
12760;SDS011;6444;49.742;6.114;2022-07-29T15:49:47;3.40;;;2.37;;
12760;SDS011;6444;49.742;6.114;2022-07-29T15:52:15;3.35;;;2.20;;
12760;SDS011;6444;49.742;6.114;2022-07-29T15:54:41;5.43;;;2.50;;